sensor_id;sensor_type;location;lat;lon;timestamp;P1;durP1;ratioP1;P2;durP2;ratioP2
16994;SDS011;8614;48.522;9.206;2022-09-03T00:00:48;6.13;;;5.73;;
16994;SDS011;8614;48.522;9.206;2022-09-03T00:03:21;6.67;;;6.17;;
16994;SDS011;8614;48.522;9.206;2022-09-03T00:05:55;6.10;;;5.70;;
16994;SDS011;8614;48.522;9.206;2022-09-03T00:08:35;6.40;;;5.90;;
16994;SDS011;8614;48.522;9.206;2022-09-03T00:11:09;6.10;;;5.70;;
16994;SDS011;8614;48.522;9.206;2022-09-03T00:13:41;6.27;;;5.87;;
16994;SDS011;8614;48.522;9.206;2022-09-03T00:16:12;6.23;;;5.83;;
16994;SDS011;8614;48.522;9.206;2022-09-03T00:18:48;6.40;;;6.00;;
16994;SDS011;8614;48.522;9.206;2022-09-03T00:21:20;6.13;;;5.80;;
16994;SDS011;8614;48.522;9.206;2022-09-03T00:23:52;6.20;;;5.80;;
16994;SDS011;8614;48.522;9.206;2022-09-03T00:26:21;6.23;;;5.83;;
16994;SDS011;8614;48.522;9.206;2022-09-03T00:28:54;6.20;;;5.80;;
16994;SDS011;8614;48.522;9.206;2022-09-03T00:31:27;6.10;;;5.70;;
16994;SDS011;8614;48.522;9.206;2022-09-03T00:33:59;6.23;;;5.80;;
16994;SDS011;8614;48.522;9.206;2022-09-03T00:36:31;6.93;;;6.33;;
16994;SDS011;8614;48.522;9.206;2022-09-03T00:39:01;6.10;;;5.70;;
16994;SDS011;8614;48.522;9.206;2022-09-03T00:41:30;5.80;;;5.47;;
16994;SDS011;8614;48.522;9.206;2022-09-03T00:44:20;6.20;;;5.80;;
16994;SDS011;8614;48.522;9.206;2022-09-03T00:47:19;6.20;;;5.80;;
16994;SDS011;8614;48.522;9.206;2022-09-03T00:49:56;6.40;;;6.00;;
16994;SDS011;8614;48.522;9.206;2022-09-03T00:52:37;6.30;;;5.90;;
16994;SDS011;8614;48.522;9.206;2022-09-03T00:55:12;6.00;;;5.60;;
16994;SDS011;8614;48.522;9.206;2022-09-03T00:57:50;5.90;;;5.50;;
16994;SDS011;8614;48.522;9.206;2022-09-03T01:00:27;6.10;;;5.70;;
16994;SDS011;8614;48.522;9.206;2022-09-03T01:02:56;5.70;;;5.40;;
16994;SDS011;8614;48.522;9.206;2022-09-03T01:08:29;5.50;;;5.20;;
16994;SDS011;8614;48.522;9.206;2022-09-03T01:11:07;5.70;;;5.30;;
16994;SDS011;8614;48.522;9.206;2022-09-03T01:13:45;6.07;;;5.67;;
16994;SDS011;8614;48.522;9.206;2022-09-03T01:16:24;5.80;;;5.50;;
16994;SDS011;8614;48.522;9.206;2022-09-03T01:18:58;5.80;;;5.50;;
16994;SDS011;8614;48.522;9.206;2022-09-03T01:21:39;6.20;;;5.80;;
16994;SDS011;8614;48.522;9.206;2022-09-03T01:24:29;6.00;;;5.63;;
16994;SDS011;8614;48.522;9.206;2022-09-03T01:27:17;6.27;;;5.77;;
16994;SDS011;8614;48.522;9.206;2022-09-03T01:29:57;6.70;;;6.30;;
16994;SDS011;8614;48.522;9.206;2022-09-03T01:32:31;6.13;;;5.83;;
16994;SDS011;8614;48.522;9.206;2022-09-03T01:35:10;6.27;;;5.87;;
16994;SDS011;8614;48.522;9.206;2022-09-03T01:37:46;6.23;;;5.83;;
16994;SDS011;8614;48.522;9.206;2022-09-03T01:40:26;6.70;;;6.20;;
16994;SDS011;8614;48.522;9.206;2022-09-03T01:43:07;6.53;;;5.93;;
16994;SDS011;8614;48.522;9.206;2022-09-03T01:45:48;6.30;;;5.90;;
16994;SDS011;8614;48.522;9.206;2022-09-03T01:51:19;6.20;;;5.80;;
16994;SDS011;8614;48.522;9.206;2022-09-03T01:53:54;6.13;;;5.73;;
16994;SDS011;8614;48.522;9.206;2022-09-03T01:56:48;6.50;;;6.10;;
16994;SDS011;8614;48.522;9.206;2022-09-03T01:59:27;6.57;;;5.97;;
16994;SDS011;8614;48.522;9.206;2022-09-03T02:02:01;6.23;;;5.83;;
16994;SDS011;8614;48.522;9.206;2022-09-03T02:04:31;6.00;;;5.70;;
16994;SDS011;8614;48.522;9.206;2022-09-03T02:06:59;6.30;;;5.80;;
16994;SDS011;8614;48.522;9.206;2022-09-03T02:09:27;5.90;;;5.60;;
16994;SDS011;8614;48.522;9.206;2022-09-03T02:11:55;6.50;;;6.10;;
16994;SDS011;8614;48.522;9.206;2022-09-03T02:14:27;6.30;;;5.90;;
16994;SDS011;8614;48.522;9.206;2022-09-03T02:16:55;6.23;;;5.83;;
16994;SDS011;8614;48.522;9.206;2022-09-03T02:19:25;5.80;;;5.50;;
16994;SDS011;8614;48.522;9.206;2022-09-03T02:21:54;6.37;;;5.97;;
16994;SDS011;8614;48.522;9.206;2022-09-03T02:24:22;6.00;;;5.70;;
16994;SDS011;8614;48.522;9.206;2022-09-03T02:26:50;6.20;;;5.80;;
16994;SDS011;8614;48.522;9.206;2022-09-03T02:29:18;6.27;;;5.87;;
16994;SDS011;8614;48.522;9.206;2022-09-03T02:31:45;6.40;;;6.00;;
16994;SDS011;8614;48.522;9.206;2022-09-03T02:34:12;6.40;;;6.00;;
16994;SDS011;8614;48.522;9.206;2022-09-03T02:36:41;6.33;;;5.93;;
16994;SDS011;8614;48.522;9.206;2022-09-03T02:39:10;6.47;;;6.07;;
16994;SDS011;8614;48.522;9.206;2022-09-03T02:41:37;6.50;;;6.10;;
16994;SDS011;8614;48.522;9.206;2022-09-03T02:44:05;6.73;;;6.33;;
16994;SDS011;8614;48.522;9.206;2022-09-03T02:46:39;6.67;;;6.27;;
16994;SDS011;8614;48.522;9.206;2022-09-03T02:49:09;6.90;;;6.40;;
16994;SDS011;8614;48.522;9.206;2022-09-03T02:51:36;7.20;;;6.70;;
16994;SDS011;8614;48.522;9.206;2022-09-03T02:54:06;6.73;;;6.23;;
16994;SDS011;8614;48.522;9.206;2022-09-03T02:56:34;6.70;;;6.30;;
16994;SDS011;8614;48.522;9.206;2022-09-03T02:59:01;6.53;;;6.13;;
16994;SDS011;8614;48.522;9.206;2022-09-03T03:01:29;6.50;;;6.10;;
16994;SDS011;8614;48.522;9.206;2022-09-03T03:03:56;6.30;;;5.90;;
16994;SDS011;8614;48.522;9.206;2022-09-03T03:06:22;6.73;;;6.23;;
16994;SDS011;8614;48.522;9.206;2022-09-03T03:08:49;6.73;;;6.27;;
16994;SDS011;8614;48.522;9.206;2022-09-03T03:11:19;6.70;;;6.30;;
16994;SDS011;8614;48.522;9.206;2022-09-03T03:13:47;6.90;;;6.40;;
16994;SDS011;8614;48.522;9.206;2022-09-03T03:16:15;6.80;;;6.40;;
16994;SDS011;8614;48.522;9.206;2022-09-03T03:18:42;6.80;;;6.40;;
16994;SDS011;8614;48.522;9.206;2022-09-03T03:21:11;7.07;;;6.53;;
16994;SDS011;8614;48.522;9.206;2022-09-03T03:23:40;6.87;;;6.40;;
16994;SDS011;8614;48.522;9.206;2022-09-03T03:26:07;6.90;;;6.40;;
16994;SDS011;8614;48.522;9.206;2022-09-03T03:28:38;7.37;;;6.77;;
16994;SDS011;8614;48.522;9.206;2022-09-03T03:31:06;7.00;;;6.60;;
16994;SDS011;8614;48.522;9.206;2022-09-03T03:33:34;7.17;;;6.67;;
16994;SDS011;8614;48.522;9.206;2022-09-03T03:36:04;7.10;;;6.70;;
16994;SDS011;8614;48.522;9.206;2022-09-03T03:38:32;7.27;;;6.77;;
16994;SDS011;8614;48.522;9.206;2022-09-03T03:40:59;7.30;;;6.80;;
16994;SDS011;8614;48.522;9.206;2022-09-03T03:43:31;7.00;;;6.60;;
16994;SDS011;8614;48.522;9.206;2022-09-03T03:45:59;7.30;;;6.90;;
16994;SDS011;8614;48.522;9.206;2022-09-03T03:48:26;7.60;;;7.10;;
16994;SDS011;8614;48.522;9.206;2022-09-03T03:50:53;7.60;;;7.10;;
16994;SDS011;8614;48.522;9.206;2022-09-03T03:53:20;8.50;;;8.00;;
16994;SDS011;8614;48.522;9.206;2022-09-03T03:55:53;7.17;;;6.60;;
16994;SDS011;8614;48.522;9.206;2022-09-03T03:58:21;7.57;;;7.07;;
16994;SDS011;8614;48.522;9.206;2022-09-03T04:00:48;8.37;;;7.87;;
16994;SDS011;8614;48.522;9.206;2022-09-03T04:03:16;7.83;;;7.30;;
16994;SDS011;8614;48.522;9.206;2022-09-03T04:05:53;7.47;;;6.97;;
16994;SDS011;8614;48.522;9.206;2022-09-03T04:08:20;7.40;;;6.90;;
16994;SDS011;8614;48.522;9.206;2022-09-03T04:10:47;7.50;;;7.00;;
16994;SDS011;8614;48.522;9.206;2022-09-03T04:13:15;8.10;;;7.50;;
16994;SDS011;8614;48.522;9.206;2022-09-03T04:15:42;7.90;;;7.33;;
16994;SDS011;8614;48.522;9.206;2022-09-03T04:18:08;7.60;;;7.10;;
16994;SDS011;8614;48.522;9.206;2022-09-03T04:20:37;7.57;;;7.07;;
16994;SDS011;8614;48.522;9.206;2022-09-03T04:23:04;8.23;;;7.73;;
16994;SDS011;8614;48.522;9.206;2022-09-03T04:25:31;7.73;;;7.23;;
16994;SDS011;8614;48.522;9.206;2022-09-03T04:27:58;7.67;;;7.07;;
16994;SDS011;8614;48.522;9.206;2022-09-03T04:30:24;7.10;;;6.70;;
16994;SDS011;8614;48.522;9.206;2022-09-03T04:32:52;7.50;;;7.00;;
16994;SDS011;8614;48.522;9.206;2022-09-03T04:35:18;7.47;;;6.97;;
16994;SDS011;8614;48.522;9.206;2022-09-03T04:37:46;7.47;;;6.97;;
16994;SDS011;8614;48.522;9.206;2022-09-03T04:40:13;7.20;;;6.63;;
16994;SDS011;8614;48.522;9.206;2022-09-03T04:42:40;7.40;;;6.90;;
16994;SDS011;8614;48.522;9.206;2022-09-03T04:45:07;7.50;;;7.00;;
16994;SDS011;8614;48.522;9.206;2022-09-03T04:47:35;8.77;;;8.17;;
16994;SDS011;8614;48.522;9.206;2022-09-03T04:50:02;7.60;;;7.10;;
16994;SDS011;8614;48.522;9.206;2022-09-03T04:52:29;7.60;;;7.10;;
16994;SDS011;8614;48.522;9.206;2022-09-03T04:54:58;7.30;;;6.80;;
16994;SDS011;8614;48.522;9.206;2022-09-03T04:57:25;7.97;;;7.37;;
16994;SDS011;8614;48.522;9.206;2022-09-03T04:59:58;7.40;;;6.90;;
16994;SDS011;8614;48.522;9.206;2022-09-03T05:02:25;7.20;;;6.70;;
16994;SDS011;8614;48.522;9.206;2022-09-03T05:04:52;7.93;;;7.27;;
16994;SDS011;8614;48.522;9.206;2022-09-03T05:07:19;8.23;;;7.63;;
16994;SDS011;8614;48.522;9.206;2022-09-03T05:09:46;7.80;;;7.20;;
16994;SDS011;8614;48.522;9.206;2022-09-03T05:12:14;7.50;;;6.90;;
16994;SDS011;8614;48.522;9.206;2022-09-03T05:14:41;7.50;;;7.00;;
16994;SDS011;8614;48.522;9.206;2022-09-03T05:17:08;7.67;;;7.17;;
16994;SDS011;8614;48.522;9.206;2022-09-03T05:19:35;7.43;;;6.93;;
16994;SDS011;8614;48.522;9.206;2022-09-03T05:22:02;7.90;;;7.40;;
16994;SDS011;8614;48.522;9.206;2022-09-03T05:24:28;7.60;;;7.10;;
16994;SDS011;8614;48.522;9.206;2022-09-03T05:26:55;8.07;;;7.57;;
16994;SDS011;8614;48.522;9.206;2022-09-03T05:29:24;7.77;;;7.27;;
16994;SDS011;8614;48.522;9.206;2022-09-03T05:31:51;7.72;;;7.22;;
16994;SDS011;8614;48.522;9.206;2022-09-03T05:34:18;7.60;;;7.20;;
16994;SDS011;8614;48.522;9.206;2022-09-03T05:36:44;7.40;;;7.00;;
16994;SDS011;8614;48.522;9.206;2022-09-03T05:39:13;7.40;;;7.00;;
16994;SDS011;8614;48.522;9.206;2022-09-03T05:41:43;7.57;;;7.10;;
16994;SDS011;8614;48.522;9.206;2022-09-03T05:44:09;7.87;;;7.37;;
16994;SDS011;8614;48.522;9.206;2022-09-03T05:46:37;7.60;;;7.00;;
16994;SDS011;8614;48.522;9.206;2022-09-03T05:49:05;8.20;;;7.70;;
16994;SDS011;8614;48.522;9.206;2022-09-03T05:51:33;7.50;;;7.10;;
16994;SDS011;8614;48.522;9.206;2022-09-03T05:54:00;8.43;;;7.93;;
16994;SDS011;8614;48.522;9.206;2022-09-03T05:56:28;8.20;;;7.70;;
16994;SDS011;8614;48.522;9.206;2022-09-03T05:58:56;6.90;;;6.47;;
16994;SDS011;8614;48.522;9.206;2022-09-03T06:01:25;8.20;;;7.70;;
16994;SDS011;8614;48.522;9.206;2022-09-03T06:03:55;6.47;;;6.00;;
16994;SDS011;8614;48.522;9.206;2022-09-03T06:06:24;3.40;;;3.10;;
16994;SDS011;8614;48.522;9.206;2022-09-03T06:08:51;5.07;;;4.60;;
16994;SDS011;8614;48.522;9.206;2022-09-03T06:11:19;3.10;;;2.90;;
16994;SDS011;8614;48.522;9.206;2022-09-03T06:13:52;4.67;;;4.27;;
16994;SDS011;8614;48.522;9.206;2022-09-03T06:16:19;7.20;;;6.70;;
16994;SDS011;8614;48.522;9.206;2022-09-03T06:18:46;6.90;;;6.40;;
16994;SDS011;8614;48.522;9.206;2022-09-03T06:21:15;5.07;;;4.67;;
16994;SDS011;8614;48.522;9.206;2022-09-03T06:23:41;5.27;;;4.87;;
16994;SDS011;8614;48.522;9.206;2022-09-03T06:26:09;5.70;;;5.30;;
16994;SDS011;8614;48.522;9.206;2022-09-03T06:28:39;7.10;;;6.60;;
16994;SDS011;8614;48.522;9.206;2022-09-03T06:31:08;7.20;;;6.70;;
16994;SDS011;8614;48.522;9.206;2022-09-03T06:33:37;6.97;;;6.50;;
16994;SDS011;8614;48.522;9.206;2022-09-03T06:36:07;6.07;;;5.63;;
16994;SDS011;8614;48.522;9.206;2022-09-03T06:38:37;6.63;;;6.23;;
16994;SDS011;8614;48.522;9.206;2022-09-03T06:41:05;7.40;;;6.90;;
16994;SDS011;8614;48.522;9.206;2022-09-03T06:43:34;6.43;;;6.00;;
16994;SDS011;8614;48.522;9.206;2022-09-03T06:46:03;4.80;;;4.50;;
16994;SDS011;8614;48.522;9.206;2022-09-03T06:48:32;7.47;;;6.87;;
16994;SDS011;8614;48.522;9.206;2022-09-03T06:51:01;7.33;;;6.93;;
16994;SDS011;8614;48.522;9.206;2022-09-03T06:53:31;7.53;;;7.03;;
16994;SDS011;8614;48.522;9.206;2022-09-03T06:56:01;2.83;;;2.63;;
16994;SDS011;8614;48.522;9.206;2022-09-03T06:58:29;7.00;;;6.53;;
16994;SDS011;8614;48.522;9.206;2022-09-03T07:01:01;6.73;;;6.33;;
16994;SDS011;8614;48.522;9.206;2022-09-03T07:03:28;6.30;;;5.80;;
16994;SDS011;8614;48.522;9.206;2022-09-03T07:05:58;5.37;;;4.90;;
16994;SDS011;8614;48.522;9.206;2022-09-03T07:08:25;7.30;;;6.80;;
16994;SDS011;8614;48.522;9.206;2022-09-03T07:10:53;6.07;;;5.63;;
16994;SDS011;8614;48.522;9.206;2022-09-03T07:13:21;5.53;;;5.13;;
16994;SDS011;8614;48.522;9.206;2022-09-03T07:15:56;6.97;;;6.57;;
16994;SDS011;8614;48.522;9.206;2022-09-03T07:18:24;3.20;;;3.00;;
16994;SDS011;8614;48.522;9.206;2022-09-03T07:20:51;3.27;;;2.70;;
16994;SDS011;8614;48.522;9.206;2022-09-03T07:23:18;3.73;;;2.90;;
16994;SDS011;8614;48.522;9.206;2022-09-03T07:25:50;2.97;;;2.77;;
16994;SDS011;8614;48.522;9.206;2022-09-03T07:28:18;6.50;;;6.10;;
16994;SDS011;8614;48.522;9.206;2022-09-03T07:30:47;3.07;;;2.73;;
16994;SDS011;8614;48.522;9.206;2022-09-03T07:33:13;3.17;;;2.90;;
16994;SDS011;8614;48.522;9.206;2022-09-03T07:35:40;4.53;;;3.27;;
16994;SDS011;8614;48.522;9.206;2022-09-03T07:38:07;3.57;;;3.27;;
16994;SDS011;8614;48.522;9.206;2022-09-03T07:40:34;3.67;;;3.17;;
16994;SDS011;8614;48.522;9.206;2022-09-03T07:43:00;3.40;;;3.10;;
16994;SDS011;8614;48.522;9.206;2022-09-03T07:45:28;7.23;;;6.63;;
16994;SDS011;8614;48.522;9.206;2022-09-03T07:47:56;7.67;;;7.10;;
16994;SDS011;8614;48.522;9.206;2022-09-03T07:50:23;6.90;;;6.30;;
16994;SDS011;8614;48.522;9.206;2022-09-03T07:52:54;8.07;;;7.33;;
16994;SDS011;8614;48.522;9.206;2022-09-03T07:55:22;8.00;;;7.30;;
16994;SDS011;8614;48.522;9.206;2022-09-03T07:57:49;8.70;;;8.00;;
16994;SDS011;8614;48.522;9.206;2022-09-03T08:00:21;8.20;;;7.50;;
16994;SDS011;8614;48.522;9.206;2022-09-03T08:02:48;8.00;;;7.30;;
16994;SDS011;8614;48.522;9.206;2022-09-03T08:05:17;8.43;;;7.83;;
16994;SDS011;8614;48.522;9.206;2022-09-03T08:07:45;8.43;;;7.83;;
16994;SDS011;8614;48.522;9.206;2022-09-03T08:10:13;8.23;;;7.63;;
16994;SDS011;8614;48.522;9.206;2022-09-03T08:12:40;8.20;;;7.50;;
16994;SDS011;8614;48.522;9.206;2022-09-03T08:15:07;8.20;;;7.60;;
16994;SDS011;8614;48.522;9.206;2022-09-03T08:17:35;8.00;;;7.30;;
16994;SDS011;8614;48.522;9.206;2022-09-03T08:20:02;8.23;;;7.73;;
16994;SDS011;8614;48.522;9.206;2022-09-03T08:22:31;8.83;;;7.97;;
16994;SDS011;8614;48.522;9.206;2022-09-03T08:24:58;8.40;;;7.80;;
16994;SDS011;8614;48.522;9.206;2022-09-03T08:27:25;4.23;;;3.93;;
16994;SDS011;8614;48.522;9.206;2022-09-03T08:29:53;8.13;;;7.50;;
16994;SDS011;8614;48.522;9.206;2022-09-03T08:32:20;9.97;;;9.37;;
16994;SDS011;8614;48.522;9.206;2022-09-03T08:34:47;3.33;;;3.03;;
16994;SDS011;8614;48.522;9.206;2022-09-03T08:37:14;4.77;;;3.17;;
16994;SDS011;8614;48.522;9.206;2022-09-03T08:39:43;6.40;;;5.90;;
16994;SDS011;8614;48.522;9.206;2022-09-03T08:42:24;3.30;;;3.00;;
16994;SDS011;8614;48.522;9.206;2022-09-03T08:44:57;7.73;;;7.03;;
16994;SDS011;8614;48.522;9.206;2022-09-03T08:47:28;7.33;;;6.83;;
16994;SDS011;8614;48.522;9.206;2022-09-03T08:49:59;6.07;;;5.63;;
16994;SDS011;8614;48.522;9.206;2022-09-03T08:52:36;6.20;;;5.60;;
16994;SDS011;8614;48.522;9.206;2022-09-03T08:55:16;7.07;;;6.63;;
16994;SDS011;8614;48.522;9.206;2022-09-03T08:57:47;3.20;;;2.90;;
16994;SDS011;8614;48.522;9.206;2022-09-03T09:00:17;7.67;;;7.17;;
16994;SDS011;8614;48.522;9.206;2022-09-03T09:02:47;7.63;;;7.13;;
16994;SDS011;8614;48.522;9.206;2022-09-03T09:05:32;7.63;;;7.13;;
16994;SDS011;8614;48.522;9.206;2022-09-03T09:08:09;7.63;;;7.13;;
16994;SDS011;8614;48.522;9.206;2022-09-03T09:10:45;7.20;;;6.70;;
16994;SDS011;8614;48.522;9.206;2022-09-03T09:13:18;3.27;;;2.97;;
16994;SDS011;8614;48.522;9.206;2022-09-03T09:15:50;6.67;;;6.20;;
16994;SDS011;8614;48.522;9.206;2022-09-03T09:18:22;7.80;;;7.20;;
16994;SDS011;8614;48.522;9.206;2022-09-03T09:20:56;5.13;;;4.70;;
16994;SDS011;8614;48.522;9.206;2022-09-03T09:23:33;5.23;;;4.80;;
16994;SDS011;8614;48.522;9.206;2022-09-03T09:26:07;5.53;;;5.03;;
16994;SDS011;8614;48.522;9.206;2022-09-03T09:28:38;4.87;;;4.47;;
16994;SDS011;8614;48.522;9.206;2022-09-03T09:31:05;6.43;;;5.83;;
16994;SDS011;8614;48.522;9.206;2022-09-03T09:33:36;7.00;;;6.53;;
16994;SDS011;8614;48.522;9.206;2022-09-03T09:36:04;6.90;;;6.40;;
16994;SDS011;8614;48.522;9.206;2022-09-03T09:38:34;6.60;;;6.07;;
16994;SDS011;8614;48.522;9.206;2022-09-03T09:41:10;7.27;;;6.77;;
16994;SDS011;8614;48.522;9.206;2022-09-03T09:43:38;6.23;;;5.83;;
16994;SDS011;8614;48.522;9.206;2022-09-03T09:46:07;7.13;;;6.63;;
16994;SDS011;8614;48.522;9.206;2022-09-03T09:48:38;6.80;;;6.33;;
16994;SDS011;8614;48.522;9.206;2022-09-03T09:51:16;6.83;;;6.40;;
16994;SDS011;8614;48.522;9.206;2022-09-03T09:53:44;6.83;;;6.37;;
16994;SDS011;8614;48.522;9.206;2022-09-03T09:56:20;7.00;;;6.47;;
16994;SDS011;8614;48.522;9.206;2022-09-03T09:58:48;6.70;;;6.30;;
16994;SDS011;8614;48.522;9.206;2022-09-03T10:01:17;6.93;;;6.43;;
16994;SDS011;8614;48.522;9.206;2022-09-03T10:03:50;6.90;;;6.40;;
16994;SDS011;8614;48.522;9.206;2022-09-03T10:06:21;7.07;;;6.57;;
16994;SDS011;8614;48.522;9.206;2022-09-03T10:09:07;6.90;;;6.40;;
16994;SDS011;8614;48.522;9.206;2022-09-03T10:11:37;6.97;;;6.47;;
16994;SDS011;8614;48.522;9.206;2022-09-03T10:14:09;6.40;;;6.00;;
16994;SDS011;8614;48.522;9.206;2022-09-03T10:16:45;7.13;;;6.63;;
16994;SDS011;8614;48.522;9.206;2022-09-03T10:19:15;7.03;;;6.53;;
16994;SDS011;8614;48.522;9.206;2022-09-03T10:21:46;6.77;;;6.27;;
16994;SDS011;8614;48.522;9.206;2022-09-03T10:24:28;5.43;;;5.03;;
16994;SDS011;8614;48.522;9.206;2022-09-03T10:27:05;6.20;;;5.70;;
16994;SDS011;8614;48.522;9.206;2022-09-03T10:29:35;5.50;;;5.20;;
16994;SDS011;8614;48.522;9.206;2022-09-03T10:32:08;5.93;;;5.53;;
16994;SDS011;8614;48.522;9.206;2022-09-03T10:34:48;6.33;;;5.73;;
16994;SDS011;8614;48.522;9.206;2022-09-03T10:37:25;6.47;;;5.90;;
16994;SDS011;8614;48.522;9.206;2022-09-03T10:40:05;6.20;;;5.80;;
16994;SDS011;8614;48.522;9.206;2022-09-03T10:42:59;6.23;;;5.80;;
16994;SDS011;8614;48.522;9.206;2022-09-03T10:45:41;6.73;;;6.17;;
16994;SDS011;8614;48.522;9.206;2022-09-03T10:48:25;6.43;;;5.87;;
16994;SDS011;8614;48.522;9.206;2022-09-03T10:51:00;6.70;;;6.20;;
16994;SDS011;8614;48.522;9.206;2022-09-03T10:53:38;5.27;;;4.87;;
16994;SDS011;8614;48.522;9.206;2022-09-03T10:56:16;6.00;;;5.60;;
16994;SDS011;8614;48.522;9.206;2022-09-03T10:58:59;5.70;;;5.30;;
16994;SDS011;8614;48.522;9.206;2022-09-03T11:01:38;5.47;;;5.13;;
16994;SDS011;8614;48.522;9.206;2022-09-03T11:04:20;5.00;;;4.70;;
16994;SDS011;8614;48.522;9.206;2022-09-03T11:06:53;5.67;;;5.27;;
16994;SDS011;8614;48.522;9.206;2022-09-03T11:09:25;4.27;;;3.97;;
16994;SDS011;8614;48.522;9.206;2022-09-03T11:12:02;5.83;;;5.40;;
16994;SDS011;8614;48.522;9.206;2022-09-03T11:14:34;6.43;;;5.93;;
16994;SDS011;8614;48.522;9.206;2022-09-03T11:17:07;6.10;;;5.70;;
16994;SDS011;8614;48.522;9.206;2022-09-03T11:19:40;6.40;;;5.90;;
16994;SDS011;8614;48.522;9.206;2022-09-03T11:22:12;6.40;;;5.90;;
16994;SDS011;8614;48.522;9.206;2022-09-03T11:24:41;6.73;;;6.23;;
16994;SDS011;8614;48.522;9.206;2022-09-03T11:27:16;6.73;;;6.23;;
16994;SDS011;8614;48.522;9.206;2022-09-03T11:29:52;6.93;;;6.50;;
16994;SDS011;8614;48.522;9.206;2022-09-03T11:32:25;6.80;;;6.30;;
16994;SDS011;8614;48.522;9.206;2022-09-03T11:35:12;6.57;;;6.07;;
16994;SDS011;8614;48.522;9.206;2022-09-03T11:37:44;6.33;;;5.77;;
16994;SDS011;8614;48.522;9.206;2022-09-03T11:40:17;6.47;;;5.90;;
16994;SDS011;8614;48.522;9.206;2022-09-03T11:42:46;7.37;;;6.77;;
16994;SDS011;8614;48.522;9.206;2022-09-03T11:45:19;7.17;;;6.57;;
16994;SDS011;8614;48.522;9.206;2022-09-03T11:47:48;8.57;;;7.53;;
16994;SDS011;8614;48.522;9.206;2022-09-03T11:50:17;8.03;;;7.43;;
16994;SDS011;8614;48.522;9.206;2022-09-03T11:52:47;5.60;;;3.23;;
16994;SDS011;8614;48.522;9.206;2022-09-03T11:55:28;8.70;;;4.27;;
16994;SDS011;8614;48.522;9.206;2022-09-03T11:57:58;9.10;;;7.63;;
16994;SDS011;8614;48.522;9.206;2022-09-03T12:00:37;8.13;;;7.23;;
16994;SDS011;8614;48.522;9.206;2022-09-03T12:03:11;7.40;;;6.90;;
16994;SDS011;8614;48.522;9.206;2022-09-03T12:05:44;6.90;;;6.30;;
16994;SDS011;8614;48.522;9.206;2022-09-03T12:08:29;6.50;;;6.00;;
16994;SDS011;8614;48.522;9.206;2022-09-03T12:11:16;6.80;;;6.30;;
16994;SDS011;8614;48.522;9.206;2022-09-03T12:13:56;7.00;;;6.50;;
16994;SDS011;8614;48.522;9.206;2022-09-03T12:19:15;8.43;;;7.00;;
16994;SDS011;8614;48.522;9.206;2022-09-03T12:21:50;7.70;;;7.00;;
16994;SDS011;8614;48.522;9.206;2022-09-03T12:24:17;7.67;;;6.87;;
16994;SDS011;8614;48.522;9.206;2022-09-03T12:26:47;7.47;;;6.80;;
16994;SDS011;8614;48.522;9.206;2022-09-03T12:29:21;7.50;;;6.80;;
16994;SDS011;8614;48.522;9.206;2022-09-03T12:31:51;9.30;;;6.93;;
16994;SDS011;8614;48.522;9.206;2022-09-03T12:34:20;7.40;;;6.80;;
16994;SDS011;8614;48.522;9.206;2022-09-03T12:36:48;7.30;;;6.60;;
16994;SDS011;8614;48.522;9.206;2022-09-03T12:39:17;7.50;;;6.90;;
16994;SDS011;8614;48.522;9.206;2022-09-03T12:41:55;7.37;;;6.60;;
16994;SDS011;8614;48.522;9.206;2022-09-03T12:44:26;7.37;;;6.77;;
16994;SDS011;8614;48.522;9.206;2022-09-03T12:47:04;2.57;;;2.20;;
16994;SDS011;8614;48.522;9.206;2022-09-03T12:49:33;2.40;;;2.20;;
16994;SDS011;8614;48.522;9.206;2022-09-03T12:52:02;3.50;;;3.10;;
16994;SDS011;8614;48.522;9.206;2022-09-03T12:54:34;2.10;;;2.00;;
16994;SDS011;8614;48.522;9.206;2022-09-03T12:57:06;2.80;;;2.03;;
16994;SDS011;8614;48.522;9.206;2022-09-03T12:59:34;2.57;;;2.00;;
16994;SDS011;8614;48.522;9.206;2022-09-03T13:02:05;2.67;;;2.20;;
16994;SDS011;8614;48.522;9.206;2022-09-03T13:04:41;6.30;;;5.90;;
16994;SDS011;8614;48.522;9.206;2022-09-03T13:07:11;6.37;;;5.97;;
16994;SDS011;8614;48.522;9.206;2022-09-03T13:09:47;7.23;;;6.63;;
16994;SDS011;8614;48.522;9.206;2022-09-03T13:12:21;8.17;;;7.47;;
16994;SDS011;8614;48.522;9.206;2022-09-03T13:14:54;7.50;;;6.90;;
16994;SDS011;8614;48.522;9.206;2022-09-03T13:17:31;7.03;;;6.53;;
16994;SDS011;8614;48.522;9.206;2022-09-03T13:20:19;7.20;;;6.70;;
16994;SDS011;8614;48.522;9.206;2022-09-03T13:23:00;7.40;;;6.80;;
16994;SDS011;8614;48.522;9.206;2022-09-03T13:25:36;6.67;;;6.27;;
16994;SDS011;8614;48.522;9.206;2022-09-03T13:28:19;7.13;;;6.70;;
16994;SDS011;8614;48.522;9.206;2022-09-03T13:30:55;7.00;;;6.60;;
16994;SDS011;8614;48.522;9.206;2022-09-03T13:33:31;7.13;;;6.63;;
16994;SDS011;8614;48.522;9.206;2022-09-03T13:36:01;7.30;;;6.70;;
16994;SDS011;8614;48.522;9.206;2022-09-03T13:38:34;2.50;;;2.20;;
16994;SDS011;8614;48.522;9.206;2022-09-03T13:41:06;6.20;;;5.70;;
16994;SDS011;8614;48.522;9.206;2022-09-03T13:43:40;6.57;;;6.00;;
16994;SDS011;8614;48.522;9.206;2022-09-03T13:46:10;6.73;;;6.33;;
16994;SDS011;8614;48.522;9.206;2022-09-03T13:48:44;7.13;;;6.63;;
16994;SDS011;8614;48.522;9.206;2022-09-03T13:51:30;2.23;;;2.03;;
16994;SDS011;8614;48.522;9.206;2022-09-03T13:54:06;2.30;;;2.10;;
16994;SDS011;8614;48.522;9.206;2022-09-03T13:56:50;6.10;;;5.70;;
16994;SDS011;8614;48.522;9.206;2022-09-03T13:59:25;7.03;;;6.53;;
16994;SDS011;8614;48.522;9.206;2022-09-03T14:02:10;3.90;;;3.60;;
16994;SDS011;8614;48.522;9.206;2022-09-03T14:04:50;2.37;;;2.07;;
16994;SDS011;8614;48.522;9.206;2022-09-03T14:07:33;5.50;;;5.00;;
16994;SDS011;8614;48.522;9.206;2022-09-03T14:10:20;6.40;;;6.00;;
16994;SDS011;8614;48.522;9.206;2022-09-03T14:12:52;6.00;;;5.70;;
16994;SDS011;8614;48.522;9.206;2022-09-03T14:15:32;3.57;;;3.37;;
16994;SDS011;8614;48.522;9.206;2022-09-03T14:18:09;4.80;;;4.33;;
16994;SDS011;8614;48.522;9.206;2022-09-03T14:20:46;3.40;;;3.20;;
16994;SDS011;8614;48.522;9.206;2022-09-03T14:23:24;2.10;;;1.90;;
16994;SDS011;8614;48.522;9.206;2022-09-03T14:25:58;2.10;;;1.90;;
16994;SDS011;8614;48.522;9.206;2022-09-03T14:28:29;1.87;;;1.73;;
16994;SDS011;8614;48.522;9.206;2022-09-03T14:31:02;1.90;;;1.80;;
16994;SDS011;8614;48.522;9.206;2022-09-03T14:33:38;1.70;;;1.60;;
16994;SDS011;8614;48.522;9.206;2022-09-03T14:36:19;1.53;;;1.43;;
16994;SDS011;8614;48.522;9.206;2022-09-03T14:41:58;1.73;;;1.67;;
16994;SDS011;8614;48.522;9.206;2022-09-03T14:47:52;3.67;;;3.47;;
16994;SDS011;8614;48.522;9.206;2022-09-03T14:50:32;1.63;;;1.63;;
16994;SDS011;8614;48.522;9.206;2022-09-03T14:53:12;1.73;;;1.67;;
16994;SDS011;8614;48.522;9.206;2022-09-03T14:56:14;1.70;;;1.60;;
16994;SDS011;8614;48.522;9.206;2022-09-03T14:58:59;2.77;;;2.57;;
16994;SDS011;8614;48.522;9.206;2022-09-03T15:01:37;1.70;;;1.60;;
16994;SDS011;8614;48.522;9.206;2022-09-03T15:04:14;2.03;;;1.93;;
16994;SDS011;8614;48.522;9.206;2022-09-03T15:07:11;1.80;;;1.70;;
16994;SDS011;8614;48.522;9.206;2022-09-03T15:09:51;1.90;;;1.80;;
16994;SDS011;8614;48.522;9.206;2022-09-03T15:12:27;2.27;;;2.07;;
16994;SDS011;8614;48.522;9.206;2022-09-03T15:15:00;1.90;;;1.80;;
16994;SDS011;8614;48.522;9.206;2022-09-03T15:17:40;5.53;;;5.23;;
16994;SDS011;8614;48.522;9.206;2022-09-03T15:20:17;4.63;;;4.43;;
16994;SDS011;8614;48.522;9.206;2022-09-03T15:23:11;1.90;;;1.80;;
16994;SDS011;8614;48.522;9.206;2022-09-03T15:26:02;1.90;;;1.80;;
16994;SDS011;8614;48.522;9.206;2022-09-03T15:28:49;1.80;;;1.70;;
16994;SDS011;8614;48.522;9.206;2022-09-03T15:31:31;1.70;;;1.63;;
16994;SDS011;8614;48.522;9.206;2022-09-03T15:34:10;1.90;;;1.80;;
16994;SDS011;8614;48.522;9.206;2022-09-03T15:36:51;1.70;;;1.60;;
16994;SDS011;8614;48.522;9.206;2022-09-03T15:39:21;1.80;;;1.70;;
16994;SDS011;8614;48.522;9.206;2022-09-03T15:41:53;4.17;;;3.87;;
16994;SDS011;8614;48.522;9.206;2022-09-03T15:44:24;1.90;;;1.80;;
16994;SDS011;8614;48.522;9.206;2022-09-03T15:46:55;1.80;;;1.70;;